createdAt,value
2022-12-08T00:02:04.603Z,98796.09
2022-12-08T00:04:53.210Z,98784.69
2022-12-08T00:07:39.177Z,98784.69
2022-12-08T00:10:39.902Z,98780.31
2022-12-08T00:12:57.388Z,98771.59
2022-12-08T00:15:27.105Z,98765.59
2022-12-08T00:17:55.539Z,98764.78
2022-12-08T00:20:23.857Z,98765.63
2022-12-08T00:22:52.158Z,98757.81
2022-12-08T00:25:20.563Z,98749.13
2022-12-08T00:27:49.084Z,98751.78
2022-12-08T00:30:17.876Z,98739.63
2022-12-08T00:32:47.609Z,98745.72
2022-12-08T00:35:15.965Z,98739.69
2022-12-08T00:37:44.307Z,98742.25
2022-12-08T00:40:12.766Z,98737.94
2022-12-08T00:42:41.155Z,98733.53
2022-12-08T00:45:10.159Z,98738.81
2022-12-08T00:47:38.482Z,98735.31
2022-12-08T00:50:09.682Z,98730.09
2022-12-08T00:52:38.323Z,98729.22
2022-12-08T00:55:07.375Z,98729.22
2022-12-08T00:57:35.741Z,98717.91
2022-12-08T01:00:05.999Z,98716.13
2022-12-08T01:02:34.577Z,98716.13
2022-12-08T01:05:02.916Z,98723.09
2022-12-08T01:07:33.030Z,98718.78
2022-12-08T01:10:01.592Z,98721.41
2022-12-08T01:12:30.389Z,98724.09
2022-12-08T01:15:02.308Z,98725.75
2022-12-08T01:17:31.283Z,98731.91
2022-12-08T01:19:59.666Z,98715.38
2022-12-08T01:22:27.973Z,98715.31
2022-12-08T01:24:57.723Z,98711.88
2022-12-08T01:27:26.108Z,98704.94
2022-12-08T01:29:54.467Z,98705.81
2022-12-08T01:32:22.807Z,98713.56
2022-12-08T01:34:51.286Z,98708.41
2022-12-08T01:37:19.604Z,98707.50
2022-12-08T01:39:47.958Z,98704.00
2022-12-08T01:42:22.761Z,98703.09
2022-12-08T01:44:59.326Z,98701.44
2022-12-08T01:47:34.399Z,98693.63
2022-12-08T01:50:03.778Z,98705.84
2022-12-08T01:52:37.700Z,98711.91
2022-12-08T01:55:09.705Z,98704.09
2022-12-08T01:57:44.478Z,98703.31
2022-12-08T02:00:15.460Z,98697.25
2022-12-08T02:02:53.038Z,98698.97
2022-12-08T02:05:24.359Z,98698.97
2022-12-08T02:07:53.200Z,98701.59
2022-12-08T02:10:24.078Z,98688.53
2022-12-08T02:12:57.235Z,98686.81
2022-12-08T02:15:38.457Z,98689.44
2022-12-08T02:18:20.505Z,98693.75
2022-12-08T02:20:57.443Z,98679.91
2022-12-08T02:23:36.890Z,98685.16
2022-12-08T02:26:50.758Z,98674.72
2022-12-08T02:29:55.644Z,98668.63
2022-12-08T02:32:43.666Z,98670.34
2022-12-08T02:35:16.880Z,98666.03
2022-12-08T02:37:51.149Z,98655.59
2022-12-08T02:40:24.403Z,98663.38
2022-12-08T02:42:58.516Z,98659.88
2022-12-08T02:45:32.828Z,98652.09
2022-12-08T02:48:01.682Z,98641.69
2022-12-08T02:54:18.787Z,98651.28
2022-12-08T02:57:17.510Z,98652.13
2022-12-08T03:00:02.544Z,98644.28
2022-12-08T03:02:50.049Z,98640.81
2022-12-08T03:05:32.059Z,98635.59
2022-12-08T03:08:07.636Z,98635.66
2022-12-08T03:10:42.951Z,98628.69
2022-12-08T03:13:15.633Z,98626.94
2022-12-08T03:15:48.775Z,98612.16
2022-12-08T03:18:21.197Z,98617.38
2022-12-08T03:20:51.064Z,98620.03
2022-12-08T03:23:21.942Z,98615.63
2022-12-08T03:25:59.398Z,98602.56
2022-12-08T03:28:28.410Z,98601.69
2022-12-08T03:31:00.873Z,98599.09
2022-12-08T03:33:33.911Z,98585.25
2022-12-08T03:36:05.156Z,98590.47
2022-12-08T03:38:39.690Z,98596.53
2022-12-08T03:41:21.709Z,98594.78
2022-12-08T03:43:51.455Z,98583.50
2022-12-08T03:48:48.662Z,98577.41
2022-12-08T03:51:17.286Z,98575.66
2022-12-08T03:53:46.085Z,98582.59
2022-12-08T03:56:22.822Z,98572.19
2022-12-08T03:58:51.340Z,98574.75
2022-12-08T04:01:19.875Z,98570.38
2022-12-08T04:03:49.041Z,98572.09
2022-12-08T04:06:17.416Z,98562.56
2022-12-08T04:08:45.818Z,98563.41
2022-12-08T04:11:14.391Z,98566.88
2022-12-08T04:13:44.771Z,98559.09
2022-12-08T04:16:18.003Z,98557.34
2022-12-08T04:18:46.526Z,98555.59
2022-12-08T04:21:15.327Z,98559.97
2022-12-08T04:23:44.171Z,98553.94
2022-12-08T04:26:12.619Z,98546.09
2022-12-08T04:28:41.084Z,98561.72
2022-12-08T04:31:11.517Z,98552.16
2022-12-08T04:33:40.046Z,98558.25
2022-12-08T04:36:09.857Z,98554.78
2022-12-08T04:38:38.321Z,98559.16
2022-12-08T04:41:06.759Z,98558.22
2022-12-08T04:43:35.020Z,98559.16
2022-12-08T04:46:03.322Z,98556.56
2022-12-08T04:48:32.999Z,98559.16
2022-12-08T04:51:01.432Z,98558.22
2022-12-08T04:53:29.761Z,98566.06
2022-12-08T04:55:58.072Z,98566.06
2022-12-08T04:58:26.459Z,98560.91
2022-12-08T05:00:54.851Z,98568.72
2022-12-08T05:03:28.581Z,98563.53
2022-12-08T05:06:00.096Z,98570.50
2022-12-08T05:08:28.622Z,98566.94
2022-12-08T05:11:03.265Z,98565.22
2022-12-08T05:13:31.718Z,98556.56
2022-12-08T05:16:07.325Z,98555.66
2022-12-08T05:18:36.228Z,98552.19
2022-12-08T05:21:06.810Z,98552.25
2022-12-08T05:23:35.580Z,98546.97
2022-12-08T05:26:03.913Z,98558.25
2022-12-08T05:28:41.150Z,98554.75
2022-12-08T05:31:11.181Z,98540.03
2022-12-08T05:33:39.627Z,98539.22
2022-12-08T05:36:09.787Z,98533.13
2022-12-08T05:38:38.635Z,98534.81
2022-12-08T05:41:07.524Z,98530.50
2022-12-08T05:43:35.973Z,98521.00
2022-12-08T05:46:04.521Z,98538.31
2022-12-08T05:48:33.366Z,98531.47
2022-12-08T05:51:01.998Z,98534.91
2022-12-08T05:53:31.766Z,98520.09
2022-12-08T05:56:00.144Z,98511.41
2022-12-08T05:58:28.517Z,98520.06
2022-12-08T06:00:56.892Z,98526.19
2022-12-08T06:03:25.352Z,98520.09
2022-12-08T06:05:53.719Z,98519.28
2022-12-08T06:08:22.179Z,98523.59
2022-12-08T06:10:52.012Z,98521.81
2022-12-08T06:13:20.457Z,98526.19
2022-12-08T06:15:48.814Z,98527.00
2022-12-08T06:18:17.140Z,98521.88
2022-12-08T06:20:45.566Z,98524.47
2022-12-08T06:23:13.849Z,98537.50
2022-12-08T06:25:42.146Z,98525.34
2022-12-08T06:28:11.852Z,98524.47
2022-12-08T06:30:40.166Z,98539.22
2022-12-08T06:33:08.713Z,98525.41
2022-12-08T06:35:38.084Z,98521.03
2022-12-08T06:38:06.419Z,98518.38
2022-12-08T06:40:34.815Z,98527.09
2022-12-08T06:43:03.249Z,98522.84
2022-12-08T06:45:33.141Z,98515.88
2022-12-08T06:48:02.903Z,98515.88
2022-12-08T06:50:32.542Z,98514.09
2022-12-08T06:53:05.253Z,98520.19
2022-12-08T06:55:57.977Z,98508.06
2022-12-08T06:58:22.810Z,98510.66
2022-12-08T07:00:52.714Z,98515.97
2022-12-08T07:03:21.132Z,98517.94
2022-12-08T07:05:49.522Z,98517.13
2022-12-08T07:08:18.015Z,98520.78
2022-12-08T07:10:46.506Z,98513.75
2022-12-08T07:13:14.883Z,98531.69
2022-12-08T07:15:43.190Z,98531.69
2022-12-08T07:18:12.937Z,98537.13
2022-12-08T07:20:41.331Z,98542.47
2022-12-08T07:23:09.639Z,98539.28
2022-12-08T07:25:38.026Z,98537.63
2022-12-08T07:28:11.326Z,98538.47
2022-12-08T07:30:39.927Z,98543.78
2022-12-08T07:33:08.676Z,98541.22
2022-12-08T07:35:38.301Z,98540.38
2022-12-08T07:38:06.750Z,98539.50
2022-12-08T07:40:35.204Z,98539.56
2022-12-08T07:43:03.492Z,98538.66
2022-12-08T07:45:32.083Z,98536.91
2022-12-08T07:48:00.623Z,98529.09
2022-12-08T07:50:28.952Z,98530.84
2022-12-08T07:52:58.601Z,98525.69
2022-12-08T07:55:27.127Z,98533.50
2022-12-08T07:57:55.528Z,98527.41
2022-12-08T08:00:24.151Z,98532.56
2022-12-08T08:02:52.768Z,98529.94
2022-12-08T08:05:21.158Z,98531.75
2022-12-08T08:07:49.583Z,98536.13
2022-12-08T08:10:19.331Z,98531.84
2022-12-08T08:12:47.713Z,98541.44
2022-12-08T08:15:17.350Z,98544.13
2022-12-08T08:17:46.016Z,98541.59
2022-12-08T08:20:15.225Z,98535.56
2022-12-08T08:22:46.866Z,98535.56
2022-12-08T08:25:15.463Z,98532.09
2022-12-08T08:27:45.251Z,98539.91
2022-12-08T08:30:20.134Z,98539.09
2022-12-08T08:32:49.550Z,98537.34
2022-12-08T08:35:19.304Z,98538.19
2022-12-08T08:37:49.323Z,98533.78
2022-12-08T08:40:18.618Z,98527.72
2022-12-08T08:42:48.273Z,98532.03
2022-12-08T08:45:16.557Z,98531.94
2022-12-08T08:47:45.290Z,98521.50
2022-12-08T08:50:13.866Z,98530.94
2022-12-08T08:52:42.484Z,98529.13
2022-12-08T08:55:11.249Z,98522.09
2022-12-08T08:57:39.574Z,98509.66
2022-12-08T09:00:10.717Z,98517.31
2022-12-08T09:02:39.664Z,98509.50
2022-12-08T09:05:08.800Z,98506.59
2022-12-08T09:07:37.284Z,98507.09
2022-12-08T09:10:06.798Z,98510.13
2022-12-08T09:12:35.309Z,98508.22
2022-12-08T09:15:03.679Z,98516.66
2022-12-08T09:17:33.482Z,98505.22
2022-12-08T09:20:02.149Z,98506.75
2022-12-08T09:22:30.828Z,98499.56
2022-12-08T09:24:59.184Z,98507.56
2022-12-08T09:27:27.557Z,98509.47
2022-12-08T09:29:55.917Z,98503.00
2022-12-08T09:32:24.388Z,98498.41
2022-12-08T09:34:54.197Z,98501.16
2022-12-08T09:37:22.550Z,98499.69
2022-12-08T09:39:50.945Z,98507.53
2022-12-08T09:42:33.446Z,98504.16
2022-12-08T09:45:07.512Z,98498.34
2022-12-08T09:47:41.130Z,98496.69
2022-12-08T09:50:19.609Z,98502.06
2022-12-08T09:52:55.300Z,98501.22
2022-12-08T09:55:41.245Z,98511.88
2022-12-08T09:58:18.882Z,98507.44
2022-12-08T10:00:48.570Z,98506.66
2022-12-08T10:03:22.364Z,98500.81
2022-12-08T10:06:02.466Z,98493.91
2022-12-08T10:08:43.296Z,98488.78
2022-12-08T10:11:17.560Z,98498.22
2022-12-08T10:13:58.317Z,98493.78
2022-12-08T10:16:33.861Z,98490.31
2022-12-08T10:19:17.500Z,98480.75
2022-12-08T10:21:47.279Z,98480.94
2022-12-08T10:24:22.229Z,98483.41
2022-12-08T10:26:51.051Z,98479.81
2022-12-08T10:29:19.878Z,98482.41
2022-12-08T10:31:48.460Z,98470.88
2022-12-08T10:34:20.177Z,98479.66
2022-12-08T10:36:52.601Z,98467.28
2022-12-08T10:39:32.733Z,98462.13
2022-12-08T10:42:09.862Z,98463.81
2022-12-08T10:44:58.083Z,98461.81
2022-12-08T10:47:28.421Z,98460.88
2022-12-08T10:50:25.500Z,98460.72
2022-12-08T10:53:01.008Z,98460.91
2022-12-08T10:55:29.918Z,98449.66
2022-12-08T10:57:58.139Z,98452.19
2022-12-08T11:00:28.627Z,98454.66
2022-12-08T11:03:04.125Z,98446.88
2022-12-08T11:05:35.010Z,98442.38
2022-12-08T11:08:06.535Z,98434.31
2022-12-08T11:10:36.955Z,98441.16
2022-12-08T11:13:20.531Z,98441.31
2022-12-08T11:15:50.407Z,98437.59
2022-12-08T11:18:26.762Z,98431.34
2022-12-08T11:21:07.059Z,98427.78
2022-12-08T11:23:38.542Z,98431.63
2022-12-08T11:26:19.489Z,98428.16
2022-12-08T11:28:48.464Z,98425.56
2022-12-08T11:31:26.132Z,98424.53
2022-12-08T11:33:54.618Z,98423.22
2022-12-08T11:36:26.714Z,98419.09
2022-12-08T11:38:58.425Z,98423.38
2022-12-08T11:41:35.443Z,98418.22
2022-12-08T11:44:12.621Z,98412.38
2022-12-08T11:46:45.112Z,98408.81
2022-12-08T11:49:15.625Z,98402.66
2022-12-08T11:51:51.102Z,98403.78
2022-12-08T11:54:25.346Z,98409.25
2022-12-08T11:56:56.637Z,98406.63
2022-12-08T11:59:31.312Z,98404.00
2022-12-08T12:02:01.654Z,98402.25
2022-12-08T12:04:34.152Z,98406.63
2022-12-08T12:07:28.747Z,98405.88
2022-12-08T12:10:09.306Z,98405.22
2022-12-08T12:12:53.921Z,98394.66
2022-12-08T12:15:45.457Z,98398.97
2022-12-08T12:18:23.430Z,98387.78
2022-12-08T12:21:00.414Z,98392.09
2022-12-08T12:23:37.116Z,98390.41
2022-12-08T12:26:08.675Z,98387.81
2022-12-08T12:28:44.086Z,98392.44
2022-12-08T12:31:17.495Z,98388.06
2022-12-08T12:33:48.119Z,98387.19
2022-12-08T12:36:17.334Z,98384.59
2022-12-08T12:39:06.203Z,98376.69
2022-12-08T12:41:43.940Z,98379.13
2022-12-08T12:44:43.252Z,98377.41
2022-12-08T12:47:14.875Z,98372.94
2022-12-08T12:49:54.384Z,98372.13
2022-12-08T12:52:45.418Z,98371.94
2022-12-08T12:55:46.009Z,98370.69
2022-12-08T12:58:30.984Z,98367.78
2022-12-08T13:01:32.675Z,98362.13
2022-12-08T13:04:06.037Z,98364.41
2022-12-08T13:06:39.109Z,98357.56
2022-12-08T13:09:28.431Z,98358.16
2022-12-08T13:12:00.436Z,98360.66
2022-12-08T13:14:33.817Z,98361.38
2022-12-08T13:17:12.173Z,98360.91
2022-12-08T13:19:41.863Z,98360.31
2022-12-08T13:22:49.327Z,98359.81
2022-12-08T13:25:52.312Z,98363.63
2022-12-08T13:28:29.561Z,98361.72
2022-12-08T13:31:00.831Z,98362.16
2022-12-08T13:33:32.870Z,98359.97
2022-12-08T13:36:12.788Z,98359.63
2022-12-08T13:38:46.005Z,98351.00
2022-12-08T13:41:19.866Z,98359.13
2022-12-08T13:44:31.098Z,98351.13
2022-12-08T13:47:31.698Z,98348.25
2022-12-08T13:58:33.747Z,98341.41
2022-12-08T14:01:07.516Z,98335.47
2022-12-08T14:04:11.761Z,98338.19
2022-12-08T14:06:39.733Z,98339.50
2022-12-08T14:09:17.159Z,98349.28
2022-12-08T14:11:48.674Z,98346.09
2022-12-08T14:14:45.927Z,98350.56
2022-12-08T14:17:13.264Z,98349.78
2022-12-08T14:19:46.023Z,98343.19
2022-12-08T14:22:16.588Z,98349.41
2022-12-08T14:24:46.197Z,98351.34
2022-12-08T14:27:17.442Z,98350.53
2022-12-08T14:29:47.472Z,98345.41
2022-12-08T14:32:32.583Z,98350.66
2022-12-08T14:35:13.189Z,98345.53
2022-12-08T14:37:44.433Z,98351.66
2022-12-08T14:40:23.828Z,98354.31
2022-12-08T14:42:55.331Z,98355.28
2022-12-08T14:45:23.802Z,98350.94
2022-12-08T14:47:52.321Z,98348.28
2022-12-08T14:50:45.439Z,98345.72
2022-12-08T14:53:17.148Z,98339.72
2022-12-08T14:55:47.953Z,98341.56
2022-12-08T14:58:19.853Z,98345.06
2022-12-08T15:00:51.446Z,98347.81
2022-12-08T15:03:23.625Z,98357.41
2022-12-08T15:05:57.376Z,98354.97
2022-12-08T15:08:26.191Z,98353.25
2022-12-08T15:11:31.727Z,98348.13
2022-12-08T15:14:00.811Z,98351.63
2022-12-08T15:16:39.598Z,98346.53
2022-12-08T15:19:19.582Z,98349.22
2022-12-08T15:21:49.486Z,98356.25
2022-12-08T15:24:24.948Z,98345.78
2022-12-08T15:26:54.255Z,98346.59
2022-12-08T15:29:25.092Z,98347.44
2022-12-08T15:31:55.528Z,98348.28
2022-12-08T15:34:25.426Z,98346.59
2022-12-08T15:36:56.374Z,98345.69
2022-12-08T15:39:37.053Z,98336.94
2022-12-08T15:42:11.928Z,98343.00
2022-12-08T15:44:40.858Z,98344.78
2022-12-08T15:47:15.724Z,98338.88
2022-12-08T15:49:44.197Z,98335.47
2022-12-08T15:52:17.761Z,98344.22
2022-12-08T15:54:46.255Z,98338.25
2022-12-08T15:57:35.857Z,98332.28
2022-12-08T16:09:13.396Z,98348.06
2022-12-08T16:12:08.774Z,98343.00
2022-12-08T16:17:30.619Z,98343.94
2022-12-08T16:19:59.388Z,98335.31
2022-12-08T16:25:22.632Z,98333.56
2022-12-08T16:28:12.357Z,98331.78
2022-12-08T16:30:42.728Z,98323.00
2022-12-08T16:33:12.904Z,98323.06
2022-12-08T16:35:42.026Z,98330.09
2022-12-08T16:38:14.568Z,98330.09
2022-12-08T16:41:04.556Z,98333.56
2022-12-08T16:43:33.909Z,98337.03
2022-12-08T16:46:02.468Z,98338.75
2022-12-08T16:48:31.037Z,98339.69
2022-12-08T16:50:59.500Z,98307.75
2022-12-08T16:53:27.897Z,98336.19
2022-12-08T16:55:57.883Z,98335.38
2022-12-08T16:58:26.398Z,98332.75
2022-12-08T17:00:54.927Z,98335.41
2022-12-08T17:03:23.481Z,98340.59
2022-12-08T17:05:51.975Z,98344.06
2022-12-08T17:08:20.538Z,98350.13
2022-12-08T17:11:07.084Z,98344.91
2022-12-08T17:13:38.218Z,98339.72
2022-12-08T17:16:10.903Z,98336.50
2022-12-08T17:18:40.165Z,98345.38
2022-12-08T17:21:11.997Z,98345.53
2022-12-08T17:23:40.927Z,98350.78
2022-12-08T17:26:09.434Z,98344.78
2022-12-08T17:28:59.568Z,98339.59
2022-12-08T17:31:29.931Z,98346.53
2022-12-08T17:33:59.825Z,98339.59
2022-12-08T17:36:28.368Z,98326.53
2022-12-08T17:38:57.624Z,98336.88
2022-12-08T17:41:26.231Z,98337.69
2022-12-08T17:43:56.507Z,98332.44
2022-12-08T17:46:25.303Z,98326.44
2022-12-08T17:48:54.274Z,98334.16
2022-12-08T17:51:22.629Z,98333.25
2022-12-08T17:53:51.232Z,98340.16
2022-12-08T17:56:21.506Z,98331.47
2022-12-08T17:58:54.569Z,98331.38
2022-12-08T18:01:25.652Z,98321.88
2022-12-08T18:03:54.329Z,98325.38
2022-12-08T18:06:25.687Z,98327.13
2022-12-08T18:08:56.758Z,98320.22
2022-12-08T18:11:25.578Z,98327.97
2022-12-08T18:13:55.559Z,98323.66
2022-12-08T18:16:27.357Z,98329.72
2022-12-08T18:18:55.888Z,98342.75
2022-12-08T18:21:24.228Z,98338.47
2022-12-08T18:23:52.826Z,98330.72
2022-12-08T18:26:21.733Z,98334.19
2022-12-08T18:28:50.624Z,98321.28
2022-12-08T18:31:21.532Z,98334.22
2022-12-08T18:33:53.113Z,98341.16
2022-12-08T18:36:24.843Z,98336.84
2022-12-08T18:38:54.367Z,98336.06
2022-12-08T18:41:25.816Z,98326.50
2022-12-08T18:43:55.155Z,98335.13
2022-12-08T18:46:24.693Z,98331.66
2022-12-08T18:48:54.552Z,98330.75
2022-12-08T18:51:25.370Z,98332.44
2022-12-08T18:53:54.037Z,98335.88
2022-12-08T18:56:24.620Z,98330.66
2022-12-08T18:58:53.076Z,98334.03
2022-12-08T19:01:21.692Z,98327.13
2022-12-08T19:04:19.789Z,98327.13
2022-12-08T19:06:41.071Z,98327.03
2022-12-08T19:09:13.923Z,98328.78
2022-12-08T19:11:42.770Z,98327.94
2022-12-08T19:14:11.913Z,98331.38
2022-12-08T19:16:40.262Z,98331.34
2022-12-08T19:19:09.090Z,98330.44
2022-12-08T19:21:41.529Z,98327.84
2022-12-08T19:24:16.057Z,98329.63
2022-12-08T19:26:44.676Z,98337.47
2022-12-08T19:29:13.413Z,98338.38
2022-12-08T19:31:42.685Z,98342.72
2022-12-08T19:34:13.859Z,98339.22
2022-12-08T19:36:43.279Z,98345.25
2022-12-08T19:39:35.690Z,98340.91
2022-12-08T19:42:22.901Z,98340.09
2022-12-08T19:44:54.297Z,98327.97
2022-12-08T19:47:24.502Z,98341.81
2022-12-08T19:49:53.892Z,98338.38
2022-12-08T19:52:22.549Z,98339.19
2022-12-08T19:54:52.281Z,98339.06
2022-12-08T19:57:20.826Z,98339.06
2022-12-08T19:59:54.637Z,98333.00
2022-12-08T20:02:24.994Z,98332.06
2022-12-08T20:04:53.471Z,98339.88
2022-12-08T20:07:21.897Z,98333.78
2022-12-08T20:09:50.262Z,98319.13
2022-12-08T20:12:20.034Z,98327.78
2022-12-08T20:14:48.519Z,98323.53
2022-12-08T20:17:16.986Z,98332.19
2022-12-08T20:19:45.458Z,98335.59
2022-12-08T20:22:13.874Z,98330.31
2022-12-08T20:24:42.256Z,98323.41
2022-12-08T20:27:10.659Z,98328.63
2022-12-08T20:29:40.423Z,98320.84
2022-12-08T20:32:08.969Z,98323.38
2022-12-08T20:34:37.379Z,98329.47
2022-12-08T20:37:05.744Z,98326.88
2022-12-08T20:39:34.243Z,98323.41
2022-12-08T20:42:04.559Z,98330.38
2022-12-08T20:44:33.156Z,98333.00
2022-12-08T20:47:02.988Z,98334.72
2022-12-08T20:49:34.776Z,98325.16
2022-12-08T20:52:03.609Z,98319.13
2022-12-08T20:54:31.969Z,98324.28
2022-12-08T20:57:00.545Z,98320.81
2022-12-08T20:59:29.208Z,98327.66
2022-12-08T21:01:58.071Z,98321.66
2022-12-08T21:04:28.254Z,98321.72
2022-12-08T21:06:57.022Z,98330.41
2022-12-08T21:09:25.577Z,98326.00
2022-12-08T21:11:54.116Z,98336.47
2022-12-08T21:14:22.510Z,98331.31
2022-12-08T21:16:51.266Z,98330.44
2022-12-08T21:19:20.850Z,98318.31
2022-12-08T21:21:50.933Z,98320.09
2022-12-08T21:24:20.593Z,98320.91
2022-12-08T21:26:49.264Z,98330.50
2022-12-08T21:29:17.755Z,98326.28
2022-12-08T21:31:46.258Z,98322.84
2022-12-08T21:34:14.701Z,98322.03
2022-12-08T21:36:43.087Z,98330.75
2022-12-08T21:39:13.169Z,98337.78
2022-12-08T21:41:59.539Z,98331.78
2022-12-08T21:44:28.106Z,98324.09
2022-12-08T21:46:56.717Z,98333.66
2022-12-08T21:49:25.397Z,98319.84
2022-12-08T21:51:53.788Z,98323.34
2022-12-08T21:54:23.881Z,98322.50
2022-12-08T21:56:52.326Z,98330.28
2022-12-08T21:59:20.968Z,98334.63
2022-12-08T22:01:49.699Z,98332.91
2022-12-08T22:04:21.200Z,98325.97
2022-12-08T22:06:50.084Z,98330.31
2022-12-08T22:09:18.978Z,98337.28
2022-12-08T22:11:48.924Z,98333.78
2022-12-08T22:14:17.470Z,98339.03
2022-12-08T22:16:46.009Z,98333.84
2022-12-08T22:19:14.615Z,98332.09
2022-12-08T22:21:43.207Z,98322.59
2022-12-08T22:24:11.560Z,98323.44
2022-12-08T22:26:40.180Z,98326.06
2022-12-08T22:29:10.017Z,98320.00
2022-12-08T22:31:38.702Z,98319.13
2022-12-08T22:34:07.173Z,98316.56
2022-12-08T22:36:36.069Z,98315.72
2022-12-08T22:39:05.928Z,98307.09
2022-12-08T22:41:34.318Z,98314.03
2022-12-08T22:44:02.771Z,98310.56
2022-12-08T22:46:32.707Z,98318.31
2022-12-08T22:49:01.637Z,98324.38
2022-12-08T22:51:29.999Z,98314.00
2022-12-08T22:53:58.282Z,98318.34
2022-12-08T22:56:26.602Z,98308.84
2022-12-08T22:58:55.150Z,98314.88
2022-12-08T23:01:25.598Z,98314.91
2022-12-08T23:03:55.754Z,98325.25
2022-12-08T23:06:24.962Z,98325.25
2022-12-08T23:08:54.183Z,98326.13
2022-12-08T23:11:25.297Z,98309.72
2022-12-08T23:13:54.055Z,98318.34
2022-12-08T23:16:22.501Z,98316.63
2022-12-08T23:18:51.026Z,98315.78
2022-12-08T23:21:21.748Z,98315.78
2022-12-08T23:23:50.203Z,98318.38
2022-12-08T23:26:21.260Z,98315.78
2022-12-08T23:28:50.155Z,98317.47
2022-12-08T23:31:19.069Z,98314.00
2022-12-08T23:33:47.955Z,98312.28
2022-12-08T23:36:17.888Z,98303.63
2022-12-08T23:38:48.501Z,98314.03
2022-12-08T23:41:17.325Z,98308.84
2022-12-08T23:43:47.318Z,98309.72
2022-12-08T23:46:17.758Z,98310.59
2022-12-08T23:48:47.020Z,98312.34
2022-12-08T23:51:16.030Z,98307.16
2022-12-08T23:53:45.494Z,98291.59
2022-12-08T23:56:17.955Z,98296.78
2022-12-08T23:58:46.605Z,98287.25
